sensor_id;sensor_type;location;lat;lon;timestamp;P1;durP1;ratioP1;P2;durP2;ratioP2
7613;SDS011;3848;42.016;23.098;2024-02-23T00:01:09;18.23;;;10.90;;
7613;SDS011;3848;42.016;23.098;2024-02-23T00:03:38;18.00;;;10.57;;
7613;SDS011;3848;42.016;23.098;2024-02-23T00:06:05;18.17;;;10.77;;
7613;SDS011;3848;42.016;23.098;2024-02-23T00:08:34;15.10;;;9.50;;
7613;SDS011;3848;42.016;23.098;2024-02-23T00:11:01;17.17;;;9.43;;
7613;SDS011;3848;42.016;23.098;2024-02-23T00:13:27;18.23;;;10.13;;
7613;SDS011;3848;42.016;23.098;2024-02-23T00:15:54;12.23;;;7.93;;
7613;SDS011;3848;42.016;23.098;2024-02-23T00:18:21;15.03;;;9.23;;
7613;SDS011;3848;42.016;23.098;2024-02-23T00:20:50;19.13;;;9.23;;
7613;SDS011;3848;42.016;23.098;2024-02-23T00:23:17;11.13;;;7.83;;
7613;SDS011;3848;42.016;23.098;2024-02-23T00:25:44;11.07;;;7.57;;
7613;SDS011;3848;42.016;23.098;2024-02-23T00:28:11;18.83;;;10.40;;
7613;SDS011;3848;42.016;23.098;2024-02-23T00:30:38;14.43;;;9.43;;
7613;SDS011;3848;42.016;23.098;2024-02-23T00:33:05;18.13;;;9.50;;
7613;SDS011;3848;42.016;23.098;2024-02-23T00:35:32;14.80;;;9.37;;
7613;SDS011;3848;42.016;23.098;2024-02-23T00:38:00;19.10;;;9.83;;
7613;SDS011;3848;42.016;23.098;2024-02-23T00:40:27;8.80;;;7.50;;
7613;SDS011;3848;42.016;23.098;2024-02-23T00:42:54;15.07;;;9.40;;
7613;SDS011;3848;42.016;23.098;2024-02-23T00:45:23;16.37;;;7.30;;
7613;SDS011;3848;42.016;23.098;2024-02-23T00:47:50;10.93;;;7.33;;
7613;SDS011;3848;42.016;23.098;2024-02-23T00:50:17;8.20;;;6.90;;
7613;SDS011;3848;42.016;23.098;2024-02-23T00:52:44;12.77;;;6.30;;
7613;SDS011;3848;42.016;23.098;2024-02-23T00:55:12;14.37;;;6.57;;
7613;SDS011;3848;42.016;23.098;2024-02-23T00:57:39;6.87;;;5.20;;
7613;SDS011;3848;42.016;23.098;2024-02-23T01:00:07;11.87;;;5.77;;
7613;SDS011;3848;42.016;23.098;2024-02-23T01:02:35;9.50;;;6.10;;
7613;SDS011;3848;42.016;23.098;2024-02-23T01:05:02;13.47;;;6.53;;
7613;SDS011;3848;42.016;23.098;2024-02-23T01:07:30;7.30;;;5.27;;
7613;SDS011;3848;42.016;23.098;2024-02-23T01:09:57;12.47;;;6.67;;
7613;SDS011;3848;42.016;23.098;2024-02-23T01:12:26;8.80;;;6.37;;
7613;SDS011;3848;42.016;23.098;2024-02-23T01:14:54;11.63;;;7.20;;
7613;SDS011;3848;42.016;23.098;2024-02-23T01:17:21;15.60;;;7.00;;
7613;SDS011;3848;42.016;23.098;2024-02-23T01:19:48;14.63;;;7.33;;
7613;SDS011;3848;42.016;23.098;2024-02-23T01:22:15;8.97;;;6.50;;
7613;SDS011;3848;42.016;23.098;2024-02-23T01:24:42;11.10;;;6.37;;
7613;SDS011;3848;42.016;23.098;2024-02-23T01:27:09;8.47;;;6.57;;
7613;SDS011;3848;42.016;23.098;2024-02-23T01:29:38;10.03;;;6.50;;
7613;SDS011;3848;42.016;23.098;2024-02-23T01:32:05;8.67;;;6.20;;
7613;SDS011;3848;42.016;23.098;2024-02-23T01:34:32;15.07;;;8.23;;
7613;SDS011;3848;42.016;23.098;2024-02-23T01:37:00;13.40;;;8.47;;
7613;SDS011;3848;42.016;23.098;2024-02-23T01:39:28;12.30;;;8.50;;
7613;SDS011;3848;42.016;23.098;2024-02-23T01:41:54;16.93;;;9.37;;
7613;SDS011;3848;42.016;23.098;2024-02-23T01:44:21;12.33;;;9.27;;
7613;SDS011;3848;42.016;23.098;2024-02-23T01:46:50;14.60;;;10.47;;
7613;SDS011;3848;42.016;23.098;2024-02-23T01:49:17;17.20;;;10.57;;
7613;SDS011;3848;42.016;23.098;2024-02-23T01:51:44;12.97;;;9.90;;
7613;SDS011;3848;42.016;23.098;2024-02-23T01:54:11;13.77;;;9.03;;
7613;SDS011;3848;42.016;23.098;2024-02-23T01:56:38;17.37;;;10.17;;
7613;SDS011;3848;42.016;23.098;2024-02-23T01:59:05;11.93;;;8.93;;
7613;SDS011;3848;42.016;23.098;2024-02-23T02:01:32;16.37;;;9.17;;
7613;SDS011;3848;42.016;23.098;2024-02-23T02:04:01;17.80;;;9.77;;
7613;SDS011;3848;42.016;23.098;2024-02-23T02:06:28;28.27;;;10.37;;
7613;SDS011;3848;42.016;23.098;2024-02-23T02:08:55;16.23;;;9.57;;
7613;SDS011;3848;42.016;23.098;2024-02-23T02:11:22;19.33;;;10.23;;
7613;SDS011;3848;42.016;23.098;2024-02-23T02:13:49;16.43;;;10.47;;
7613;SDS011;3848;42.016;23.098;2024-02-23T02:16:16;13.97;;;9.63;;
7613;SDS011;3848;42.016;23.098;2024-02-23T02:18:43;12.53;;;9.07;;
7613;SDS011;3848;42.016;23.098;2024-02-23T02:21:12;14.67;;;10.10;;
7613;SDS011;3848;42.016;23.098;2024-02-23T02:23:39;16.57;;;9.43;;
7613;SDS011;3848;42.016;23.098;2024-02-23T02:26:06;17.27;;;10.03;;
7613;SDS011;3848;42.016;23.098;2024-02-23T02:28:33;14.17;;;9.20;;
7613;SDS011;3848;42.016;23.098;2024-02-23T02:31:00;16.53;;;9.60;;
7613;SDS011;3848;42.016;23.098;2024-02-23T02:33:28;11.40;;;8.43;;
7613;SDS011;3848;42.016;23.098;2024-02-23T02:35:55;14.50;;;9.87;;
7613;SDS011;3848;42.016;23.098;2024-02-23T02:38:23;16.07;;;8.93;;
7613;SDS011;3848;42.016;23.098;2024-02-23T02:40:50;17.47;;;9.17;;
7613;SDS011;3848;42.016;23.098;2024-02-23T02:43:17;13.47;;;8.33;;
7613;SDS011;3848;42.016;23.098;2024-02-23T02:45:44;13.57;;;9.20;;
7613;SDS011;3848;42.016;23.098;2024-02-23T02:48:11;16.73;;;9.37;;
7613;SDS011;3848;42.016;23.098;2024-02-23T02:50:38;12.60;;;8.70;;
7613;SDS011;3848;42.016;23.098;2024-02-23T02:53:05;16.17;;;9.03;;
7613;SDS011;3848;42.016;23.098;2024-02-23T02:55:33;14.50;;;8.33;;
7613;SDS011;3848;42.016;23.098;2024-02-23T02:58:00;10.90;;;7.83;;
7613;SDS011;3848;42.016;23.098;2024-02-23T03:00:27;13.87;;;8.97;;
7613;SDS011;3848;42.016;23.098;2024-02-23T03:02:56;15.70;;;8.93;;
7613;SDS011;3848;42.016;23.098;2024-02-23T03:05:23;10.33;;;8.57;;
7613;SDS011;3848;42.016;23.098;2024-02-23T03:07:50;13.20;;;9.13;;
7613;SDS011;3848;42.016;23.098;2024-02-23T03:10:17;12.33;;;8.97;;
7613;SDS011;3848;42.016;23.098;2024-02-23T03:12:45;13.80;;;8.00;;
7613;SDS011;3848;42.016;23.098;2024-02-23T03:15:12;13.57;;;8.03;;
7613;SDS011;3848;42.016;23.098;2024-02-23T03:17:39;15.97;;;7.73;;
7613;SDS011;3848;42.016;23.098;2024-02-23T03:20:06;12.37;;;7.83;;
7613;SDS011;3848;42.016;23.098;2024-02-23T03:22:34;14.87;;;8.73;;
7613;SDS011;3848;42.016;23.098;2024-02-23T03:25:01;13.13;;;7.87;;
7613;SDS011;3848;42.016;23.098;2024-02-23T03:27:33;15.53;;;8.83;;
7613;SDS011;3848;42.016;23.098;2024-02-23T03:30:03;13.23;;;7.63;;
7613;SDS011;3848;42.016;23.098;2024-02-23T03:32:30;16.03;;;8.47;;
7613;SDS011;3848;42.016;23.098;2024-02-23T03:35:02;12.40;;;8.10;;
7613;SDS011;3848;42.016;23.098;2024-02-23T03:37:29;9.70;;;7.20;;
7613;SDS011;3848;42.016;23.098;2024-02-23T03:39:56;8.23;;;7.33;;
7613;SDS011;3848;42.016;23.098;2024-02-23T03:42:24;11.93;;;6.87;;
7613;SDS011;3848;42.016;23.098;2024-02-23T03:44:51;9.47;;;6.57;;
7613;SDS011;3848;42.016;23.098;2024-02-23T03:47:20;11.17;;;6.87;;
7613;SDS011;3848;42.016;23.098;2024-02-23T03:49:47;10.03;;;7.13;;
7613;SDS011;3848;42.016;23.098;2024-02-23T03:52:14;9.37;;;6.10;;
7613;SDS011;3848;42.016;23.098;2024-02-23T03:54:41;9.13;;;6.33;;
7613;SDS011;3848;42.016;23.098;2024-02-23T03:57:08;8.27;;;5.83;;
7613;SDS011;3848;42.016;23.098;2024-02-23T03:59:35;12.13;;;7.17;;
7613;SDS011;3848;42.016;23.098;2024-02-23T04:02:03;11.90;;;7.33;;
7613;SDS011;3848;42.016;23.098;2024-02-23T04:04:32;8.40;;;6.23;;
7613;SDS011;3848;42.016;23.098;2024-02-23T04:06:59;10.43;;;5.97;;
7613;SDS011;3848;42.016;23.098;2024-02-23T04:09:26;17.30;;;7.47;;
7613;SDS011;3848;42.016;23.098;2024-02-23T04:11:53;10.83;;;6.83;;
7613;SDS011;3848;42.016;23.098;2024-02-23T04:14:20;10.23;;;6.70;;
7613;SDS011;3848;42.016;23.098;2024-02-23T04:16:47;11.77;;;7.13;;
7613;SDS011;3848;42.016;23.098;2024-02-23T04:19:13;10.73;;;7.17;;
7613;SDS011;3848;42.016;23.098;2024-02-23T04:21:41;13.30;;;6.97;;
7613;SDS011;3848;42.016;23.098;2024-02-23T04:24:08;9.47;;;6.93;;
7613;SDS011;3848;42.016;23.098;2024-02-23T04:26:35;10.93;;;6.60;;
7613;SDS011;3848;42.016;23.098;2024-02-23T04:29:02;13.63;;;7.17;;
7613;SDS011;3848;42.016;23.098;2024-02-23T04:31:29;19.17;;;7.87;;
7613;SDS011;3848;42.016;23.098;2024-02-23T04:33:56;7.60;;;6.10;;
7613;SDS011;3848;42.016;23.098;2024-02-23T04:36:23;10.87;;;7.03;;
7613;SDS011;3848;42.016;23.098;2024-02-23T04:38:51;10.07;;;6.83;;
7613;SDS011;3848;42.016;23.098;2024-02-23T04:41:19;10.63;;;6.47;;
7613;SDS011;3848;42.016;23.098;2024-02-23T04:43:46;8.73;;;6.10;;
7613;SDS011;3848;42.016;23.098;2024-02-23T04:46:13;15.93;;;6.70;;
7613;SDS011;3848;42.016;23.098;2024-02-23T04:48:40;8.93;;;6.83;;
7613;SDS011;3848;42.016;23.098;2024-02-23T04:51:07;9.40;;;7.17;;
7613;SDS011;3848;42.016;23.098;2024-02-23T04:53:36;14.30;;;8.23;;
7613;SDS011;3848;42.016;23.098;2024-02-23T04:56:05;10.10;;;7.03;;
7613;SDS011;3848;42.016;23.098;2024-02-23T04:58:32;11.57;;;7.47;;
7613;SDS011;3848;42.016;23.098;2024-02-23T05:00:59;20.43;;;8.93;;
7613;SDS011;3848;42.016;23.098;2024-02-23T05:03:28;14.37;;;8.37;;
7613;SDS011;3848;42.016;23.098;2024-02-23T05:05:55;14.97;;;6.53;;
7613;SDS011;3848;42.016;23.098;2024-02-23T05:08:22;11.87;;;8.20;;
7613;SDS011;3848;42.016;23.098;2024-02-23T05:10:49;14.57;;;8.77;;
7613;SDS011;3848;42.016;23.098;2024-02-23T05:13:18;12.43;;;7.63;;
7613;SDS011;3848;42.016;23.098;2024-02-23T05:15:45;14.03;;;6.67;;
7613;SDS011;3848;42.016;23.098;2024-02-23T05:18:12;13.30;;;6.73;;
7613;SDS011;3848;42.016;23.098;2024-02-23T05:20:39;11.83;;;7.20;;
7613;SDS011;3848;42.016;23.098;2024-02-23T05:23:06;13.17;;;8.47;;
7613;SDS011;3848;42.016;23.098;2024-02-23T05:25:34;12.40;;;9.73;;
7613;SDS011;3848;42.016;23.098;2024-02-23T05:28:01;12.13;;;9.23;;
7613;SDS011;3848;42.016;23.098;2024-02-23T05:30:29;8.87;;;7.20;;
7613;SDS011;3848;42.016;23.098;2024-02-23T05:32:56;17.47;;;8.77;;
7613;SDS011;3848;42.016;23.098;2024-02-23T05:35:24;12.23;;;8.50;;
7613;SDS011;3848;42.016;23.098;2024-02-23T05:37:52;13.13;;;9.33;;
7613;SDS011;3848;42.016;23.098;2024-02-23T05:40:19;11.63;;;7.90;;
7613;SDS011;3848;42.016;23.098;2024-02-23T05:42:46;12.07;;;9.93;;
7613;SDS011;3848;42.016;23.098;2024-02-23T05:45:13;9.50;;;8.30;;
7613;SDS011;3848;42.016;23.098;2024-02-23T05:47:42;16.43;;;8.70;;
7613;SDS011;3848;42.016;23.098;2024-02-23T05:50:09;9.93;;;7.90;;
7613;SDS011;3848;42.016;23.098;2024-02-23T05:52:36;13.37;;;7.93;;
7613;SDS011;3848;42.016;23.098;2024-02-23T05:55:04;12.60;;;7.97;;
7613;SDS011;3848;42.016;23.098;2024-02-23T05:57:31;12.03;;;7.70;;
7613;SDS011;3848;42.016;23.098;2024-02-23T05:59:58;12.03;;;7.83;;
7613;SDS011;3848;42.016;23.098;2024-02-23T06:02:25;18.53;;;7.80;;
7613;SDS011;3848;42.016;23.098;2024-02-23T06:04:54;11.37;;;7.57;;
7613;SDS011;3848;42.016;23.098;2024-02-23T06:07:21;12.10;;;7.20;;
7613;SDS011;3848;42.016;23.098;2024-02-23T06:09:54;11.50;;;7.53;;
7613;SDS011;3848;42.016;23.098;2024-02-23T06:12:21;13.10;;;7.40;;
7613;SDS011;3848;42.016;23.098;2024-02-23T06:14:48;20.70;;;7.73;;
7613;SDS011;3848;42.016;23.098;2024-02-23T06:17:15;11.70;;;7.90;;
7613;SDS011;3848;42.016;23.098;2024-02-23T06:19:42;14.73;;;8.67;;
7613;SDS011;3848;42.016;23.098;2024-02-23T06:22:10;18.17;;;10.00;;
7613;SDS011;3848;42.016;23.098;2024-02-23T06:24:37;22.10;;;10.17;;
7613;SDS011;3848;42.016;23.098;2024-02-23T06:27:04;14.97;;;9.03;;
7613;SDS011;3848;42.016;23.098;2024-02-23T06:29:31;14.73;;;7.93;;
7613;SDS011;3848;42.016;23.098;2024-02-23T06:31:58;10.80;;;7.27;;
7613;SDS011;3848;42.016;23.098;2024-02-23T06:34:28;12.30;;;7.40;;
7613;SDS011;3848;42.016;23.098;2024-02-23T06:36:55;18.60;;;10.13;;
7613;SDS011;3848;42.016;23.098;2024-02-23T06:39:23;20.70;;;10.10;;
7613;SDS011;3848;42.016;23.098;2024-02-23T06:41:51;18.13;;;10.37;;
7613;SDS011;3848;42.016;23.098;2024-02-23T06:44:17;13.27;;;9.50;;
7613;SDS011;3848;42.016;23.098;2024-02-23T06:46:44;14.53;;;9.03;;
7613;SDS011;3848;42.016;23.098;2024-02-23T06:49:11;10.63;;;7.50;;
7613;SDS011;3848;42.016;23.098;2024-02-23T06:51:38;18.07;;;9.10;;
7613;SDS011;3848;42.016;23.098;2024-02-23T06:54:06;18.07;;;10.50;;
7613;SDS011;3848;42.016;23.098;2024-02-23T06:56:34;19.43;;;10.03;;
7613;SDS011;3848;42.016;23.098;2024-02-23T06:59:02;17.30;;;9.57;;
7613;SDS011;3848;42.016;23.098;2024-02-23T07:01:29;23.47;;;9.83;;
7613;SDS011;3848;42.016;23.098;2024-02-23T07:03:56;17.37;;;9.43;;
7613;SDS011;3848;42.016;23.098;2024-02-23T07:06:23;24.20;;;9.90;;
7613;SDS011;3848;42.016;23.098;2024-02-23T07:08:50;18.13;;;10.37;;
7613;SDS011;3848;42.016;23.098;2024-02-23T07:11:18;18.57;;;9.73;;
7613;SDS011;3848;42.016;23.098;2024-02-23T07:13:46;23.00;;;10.97;;
7613;SDS011;3848;42.016;23.098;2024-02-23T07:16:13;18.90;;;9.33;;
7613;SDS011;3848;42.016;23.098;2024-02-23T07:18:40;19.27;;;10.70;;
7613;SDS011;3848;42.016;23.098;2024-02-23T07:21:07;21.33;;;12.97;;
7613;SDS011;3848;42.016;23.098;2024-02-23T07:23:34;20.17;;;11.83;;
7613;SDS011;3848;42.016;23.098;2024-02-23T07:26:01;24.33;;;12.80;;
7613;SDS011;3848;42.016;23.098;2024-02-23T07:28:28;21.60;;;13.27;;
7613;SDS011;3848;42.016;23.098;2024-02-23T07:30:57;31.53;;;16.33;;
7613;SDS011;3848;42.016;23.098;2024-02-23T07:33:24;25.30;;;11.60;;
7613;SDS011;3848;42.016;23.098;2024-02-23T07:35:51;20.10;;;11.27;;
7613;SDS011;3848;42.016;23.098;2024-02-23T07:38:17;20.40;;;11.77;;
7613;SDS011;3848;42.016;23.098;2024-02-23T07:40:44;19.73;;;10.83;;
7613;SDS011;3848;42.016;23.098;2024-02-23T07:43:11;22.47;;;12.93;;
7613;SDS011;3848;42.016;23.098;2024-02-23T07:45:39;15.10;;;9.33;;
7613;SDS011;3848;42.016;23.098;2024-02-23T07:48:07;16.37;;;9.27;;
7613;SDS011;3848;42.016;23.098;2024-02-23T07:50:34;15.80;;;10.47;;
7613;SDS011;3848;42.016;23.098;2024-02-23T07:53:01;16.10;;;9.87;;
7613;SDS011;3848;42.016;23.098;2024-02-23T07:55:29;10.30;;;7.73;;
7613;SDS011;3848;42.016;23.098;2024-02-23T07:57:56;13.67;;;9.23;;
7613;SDS011;3848;42.016;23.098;2024-02-23T08:00:26;15.63;;;9.33;;
7613;SDS011;3848;42.016;23.098;2024-02-23T08:02:53;11.07;;;8.40;;
7613;SDS011;3848;42.016;23.098;2024-02-23T08:05:23;7.63;;;6.87;;
7613;SDS011;3848;42.016;23.098;2024-02-23T08:07:50;15.73;;;8.50;;
7613;SDS011;3848;42.016;23.098;2024-02-23T08:10:17;14.17;;;9.13;;
7613;SDS011;3848;42.016;23.098;2024-02-23T08:12:44;17.53;;;10.40;;
7613;SDS011;3848;42.016;23.098;2024-02-23T08:15:11;18.37;;;9.23;;
7613;SDS011;3848;42.016;23.098;2024-02-23T08:22:00;9.83;;;6.63;;
7613;SDS011;3848;42.016;23.098;2024-02-23T08:24:28;13.90;;;8.03;;
7613;SDS011;3848;42.016;23.098;2024-02-23T08:26:55;12.70;;;7.80;;
7613;SDS011;3848;42.016;23.098;2024-02-23T08:29:22;14.77;;;7.63;;
7613;SDS011;3848;42.016;23.098;2024-02-23T08:31:49;8.23;;;5.60;;
7613;SDS011;3848;42.016;23.098;2024-02-23T08:34:16;11.80;;;6.97;;
7613;SDS011;3848;42.016;23.098;2024-02-23T08:36:43;10.30;;;7.23;;
7613;SDS011;3848;42.016;23.098;2024-02-23T08:39:12;7.83;;;5.37;;
7613;SDS011;3848;42.016;23.098;2024-02-23T08:41:39;7.27;;;5.47;;
7613;SDS011;3848;42.016;23.098;2024-02-23T08:44:06;7.87;;;6.13;;
7613;SDS011;3848;42.016;23.098;2024-02-23T08:46:33;6.43;;;5.00;;
7613;SDS011;3848;42.016;23.098;2024-02-23T08:49:00;12.23;;;5.50;;
7613;SDS011;3848;42.016;23.098;2024-02-23T08:51:27;7.87;;;5.77;;
7613;SDS011;3848;42.016;23.098;2024-02-23T08:53:54;6.90;;;5.03;;
7613;SDS011;3848;42.016;23.098;2024-02-23T08:56:23;5.90;;;5.03;;
7613;SDS011;3848;42.016;23.098;2024-02-23T08:58:50;9.23;;;5.83;;
7613;SDS011;3848;42.016;23.098;2024-02-23T09:01:17;6.97;;;4.93;;
7613;SDS011;3848;42.016;23.098;2024-02-23T09:03:45;6.60;;;4.83;;
7613;SDS011;3848;42.016;23.098;2024-02-23T09:06:12;10.63;;;6.73;;
7613;SDS011;3848;42.016;23.098;2024-02-23T09:08:40;11.40;;;5.53;;
7613;SDS011;3848;42.016;23.098;2024-02-23T09:11:07;9.40;;;5.80;;
7613;SDS011;3848;42.016;23.098;2024-02-23T09:13:38;8.03;;;4.83;;
7613;SDS011;3848;42.016;23.098;2024-02-23T09:16:06;6.30;;;5.13;;
7613;SDS011;3848;42.016;23.098;2024-02-23T09:18:34;6.67;;;4.93;;
7613;SDS011;3848;42.016;23.098;2024-02-23T09:21:01;9.20;;;3.90;;
7613;SDS011;3848;42.016;23.098;2024-02-23T09:23:28;10.47;;;4.63;;
7613;SDS011;3848;42.016;23.098;2024-02-23T09:25:55;9.47;;;5.80;;
7613;SDS011;3848;42.016;23.098;2024-02-23T09:28:22;9.67;;;5.77;;
7613;SDS011;3848;42.016;23.098;2024-02-23T09:30:51;6.00;;;5.07;;
7613;SDS011;3848;42.016;23.098;2024-02-23T09:33:18;8.43;;;5.93;;
7613;SDS011;3848;42.016;23.098;2024-02-23T09:35:45;5.17;;;4.63;;
7613;SDS011;3848;42.016;23.098;2024-02-23T09:38:12;6.43;;;4.90;;
7613;SDS011;3848;42.016;23.098;2024-02-23T09:40:39;4.43;;;3.63;;
7613;SDS011;3848;42.016;23.098;2024-02-23T09:43:06;5.90;;;5.43;;
7613;SDS011;3848;42.016;23.098;2024-02-23T09:45:36;4.20;;;3.33;;
7613;SDS011;3848;42.016;23.098;2024-02-23T09:48:06;3.23;;;2.90;;
7613;SDS011;3848;42.016;23.098;2024-02-23T09:50:35;5.40;;;3.73;;
7613;SDS011;3848;42.016;23.098;2024-02-23T09:53:04;4.53;;;3.77;;
7613;SDS011;3848;42.016;23.098;2024-02-23T09:55:34;3.63;;;3.20;;
7613;SDS011;3848;42.016;23.098;2024-02-23T09:58:01;4.10;;;3.37;;
7613;SDS011;3848;42.016;23.098;2024-02-23T10:00:30;3.57;;;2.70;;
7613;SDS011;3848;42.016;23.098;2024-02-23T10:02:57;5.00;;;2.70;;
7613;SDS011;3848;42.016;23.098;2024-02-23T10:05:29;2.33;;;2.17;;
7613;SDS011;3848;42.016;23.098;2024-02-23T10:07:57;3.37;;;3.03;;
7613;SDS011;3848;42.016;23.098;2024-02-23T10:10:24;3.33;;;3.03;;
7613;SDS011;3848;42.016;23.098;2024-02-23T10:12:56;3.87;;;2.50;;
7613;SDS011;3848;42.016;23.098;2024-02-23T10:15:24;3.77;;;2.47;;
7613;SDS011;3848;42.016;23.098;2024-02-23T10:17:51;2.87;;;2.53;;
7613;SDS011;3848;42.016;23.098;2024-02-23T10:20:19;2.80;;;2.47;;
7613;SDS011;3848;42.016;23.098;2024-02-23T10:22:48;2.97;;;2.77;;
7613;SDS011;3848;42.016;23.098;2024-02-23T10:25:15;2.43;;;2.23;;
7613;SDS011;3848;42.016;23.098;2024-02-23T10:27:45;3.23;;;2.70;;
7613;SDS011;3848;42.016;23.098;2024-02-23T10:30:13;3.47;;;2.87;;
7613;SDS011;3848;42.016;23.098;2024-02-23T10:32:40;2.70;;;2.53;;
7613;SDS011;3848;42.016;23.098;2024-02-23T10:35:10;3.53;;;2.57;;
7613;SDS011;3848;42.016;23.098;2024-02-23T10:37:41;3.93;;;2.53;;
7613;SDS011;3848;42.016;23.098;2024-02-23T10:40:12;2.20;;;1.83;;
7613;SDS011;3848;42.016;23.098;2024-02-23T10:42:40;3.90;;;2.57;;
7613;SDS011;3848;42.016;23.098;2024-02-23T10:45:12;6.17;;;2.00;;
7613;SDS011;3848;42.016;23.098;2024-02-23T10:47:42;2.87;;;2.07;;
7613;SDS011;3848;42.016;23.098;2024-02-23T10:50:10;4.60;;;2.97;;
7613;SDS011;3848;42.016;23.098;2024-02-23T10:52:39;3.93;;;2.27;;
7613;SDS011;3848;42.016;23.098;2024-02-23T10:55:08;8.60;;;2.60;;
7613;SDS011;3848;42.016;23.098;2024-02-23T10:57:41;2.17;;;2.07;;
7613;SDS011;3848;42.016;23.098;2024-02-23T11:00:10;4.13;;;2.77;;
7613;SDS011;3848;42.016;23.098;2024-02-23T11:02:39;3.80;;;2.17;;
7613;SDS011;3848;42.016;23.098;2024-02-23T11:05:09;3.80;;;2.00;;
7613;SDS011;3848;42.016;23.098;2024-02-23T11:07:38;3.90;;;1.90;;
7613;SDS011;3848;42.016;23.098;2024-02-23T11:10:06;1.87;;;1.70;;
7613;SDS011;3848;42.016;23.098;2024-02-23T11:12:35;2.77;;;2.27;;
7613;SDS011;3848;42.016;23.098;2024-02-23T11:15:03;3.53;;;2.10;;
7613;SDS011;3848;42.016;23.098;2024-02-23T11:17:31;2.20;;;2.03;;
7613;SDS011;3848;42.016;23.098;2024-02-23T11:20:02;3.03;;;2.07;;
7613;SDS011;3848;42.016;23.098;2024-02-23T11:22:30;3.30;;;2.47;;
7613;SDS011;3848;42.016;23.098;2024-02-23T11:24:59;3.23;;;2.30;;
7613;SDS011;3848;42.016;23.098;2024-02-23T11:27:30;2.87;;;2.53;;
7613;SDS011;3848;42.016;23.098;2024-02-23T11:30:03;6.27;;;2.13;;
7613;SDS011;3848;42.016;23.098;2024-02-23T11:32:36;2.33;;;2.13;;
7613;SDS011;3848;42.016;23.098;2024-02-23T11:35:06;2.27;;;2.10;;
7613;SDS011;3848;42.016;23.098;2024-02-23T11:37:43;15.03;;;2.23;;
7613;SDS011;3848;42.016;23.098;2024-02-23T11:40:12;3.00;;;2.40;;
7613;SDS011;3848;42.016;23.098;2024-02-23T11:42:39;3.03;;;2.53;;
7613;SDS011;3848;42.016;23.098;2024-02-23T11:45:10;5.13;;;2.60;;
7613;SDS011;3848;42.016;23.098;2024-02-23T11:47:37;4.43;;;2.90;;
7613;SDS011;3848;42.016;23.098;2024-02-23T11:50:06;2.40;;;2.13;;
7613;SDS011;3848;42.016;23.098;2024-02-23T11:52:35;2.63;;;2.23;;
7613;SDS011;3848;42.016;23.098;2024-02-23T11:55:03;3.23;;;2.37;;
7613;SDS011;3848;42.016;23.098;2024-02-23T11:57:31;2.87;;;2.00;;
7613;SDS011;3848;42.016;23.098;2024-02-23T12:00:00;2.67;;;2.27;;
7613;SDS011;3848;42.016;23.098;2024-02-23T12:02:29;2.40;;;2.20;;
7613;SDS011;3848;42.016;23.098;2024-02-23T12:04:57;2.50;;;1.70;;
7613;SDS011;3848;42.016;23.098;2024-02-23T12:07:24;2.17;;;1.67;;
7613;SDS011;3848;42.016;23.098;2024-02-23T12:09:53;1.70;;;1.60;;
7613;SDS011;3848;42.016;23.098;2024-02-23T12:12:20;2.53;;;2.03;;
7613;SDS011;3848;42.016;23.098;2024-02-23T12:14:47;2.83;;;1.93;;
7613;SDS011;3848;42.016;23.098;2024-02-23T12:17:14;3.00;;;2.40;;
7613;SDS011;3848;42.016;23.098;2024-02-23T12:19:43;18.37;;;2.63;;
7613;SDS011;3848;42.016;23.098;2024-02-23T12:22:10;2.13;;;1.90;;
7613;SDS011;3848;42.016;23.098;2024-02-23T12:24:37;2.40;;;2.13;;
7613;SDS011;3848;42.016;23.098;2024-02-23T12:27:06;3.07;;;2.00;;
7613;SDS011;3848;42.016;23.098;2024-02-23T12:29:33;3.43;;;3.13;;
7613;SDS011;3848;42.016;23.098;2024-02-23T12:32:04;4.80;;;2.80;;
7613;SDS011;3848;42.016;23.098;2024-02-23T12:34:31;4.37;;;2.20;;
7613;SDS011;3848;42.016;23.098;2024-02-23T12:37:00;4.00;;;2.40;;
7613;SDS011;3848;42.016;23.098;2024-02-23T12:39:28;2.77;;;2.10;;
7613;SDS011;3848;42.016;23.098;2024-02-23T12:41:56;2.73;;;1.83;;
7613;SDS011;3848;42.016;23.098;2024-02-23T12:44:23;3.23;;;2.67;;
7613;SDS011;3848;42.016;23.098;2024-02-23T12:46:50;5.90;;;3.23;;
7613;SDS011;3848;42.016;23.098;2024-02-23T12:49:17;2.43;;;2.23;;
7613;SDS011;3848;42.016;23.098;2024-02-23T12:51:44;4.03;;;2.73;;
7613;SDS011;3848;42.016;23.098;2024-02-23T12:54:13;3.30;;;2.90;;
7613;SDS011;3848;42.016;23.098;2024-02-23T12:56:40;5.67;;;2.93;;
7613;SDS011;3848;42.016;23.098;2024-02-23T12:59:07;5.97;;;2.50;;
7613;SDS011;3848;42.016;23.098;2024-02-23T13:01:35;2.80;;;2.03;;
7613;SDS011;3848;42.016;23.098;2024-02-23T13:04:03;2.53;;;2.20;;
7613;SDS011;3848;42.016;23.098;2024-02-23T13:06:35;1.70;;;1.63;;
7613;SDS011;3848;42.016;23.098;2024-02-23T13:09:03;2.33;;;1.93;;
7613;SDS011;3848;42.016;23.098;2024-02-23T13:11:34;2.67;;;2.47;;
7613;SDS011;3848;42.016;23.098;2024-02-23T13:14:02;2.20;;;2.07;;
7613;SDS011;3848;42.016;23.098;2024-02-23T13:16:29;2.10;;;1.63;;
7613;SDS011;3848;42.016;23.098;2024-02-23T13:18:56;8.07;;;2.33;;
7613;SDS011;3848;42.016;23.098;2024-02-23T13:21:23;2.70;;;2.50;;
7613;SDS011;3848;42.016;23.098;2024-02-23T13:23:50;2.40;;;2.07;;
7613;SDS011;3848;42.016;23.098;2024-02-23T13:26:17;2.80;;;2.60;;
7613;SDS011;3848;42.016;23.098;2024-02-23T13:28:46;3.30;;;2.07;;
7613;SDS011;3848;42.016;23.098;2024-02-23T13:31:13;2.43;;;2.23;;
7613;SDS011;3848;42.016;23.098;2024-02-23T13:33:40;3.30;;;2.30;;
7613;SDS011;3848;42.016;23.098;2024-02-23T13:36:09;3.37;;;2.20;;
7613;SDS011;3848;42.016;23.098;2024-02-23T13:38:38;3.77;;;2.37;;
7613;SDS011;3848;42.016;23.098;2024-02-23T13:41:06;2.33;;;2.20;;
7613;SDS011;3848;42.016;23.098;2024-02-23T13:43:33;2.50;;;2.17;;
7613;SDS011;3848;42.016;23.098;2024-02-23T13:46:02;4.10;;;2.37;;
7613;SDS011;3848;42.016;23.098;2024-02-23T13:48:30;3.80;;;2.33;;
7613;SDS011;3848;42.016;23.098;2024-02-23T13:50:57;2.03;;;1.87;;
7613;SDS011;3848;42.016;23.098;2024-02-23T13:53:28;3.40;;;2.13;;
7613;SDS011;3848;42.016;23.098;2024-02-23T13:55:56;3.03;;;2.83;;
7613;SDS011;3848;42.016;23.098;2024-02-23T13:58:23;5.93;;;2.87;;
7613;SDS011;3848;42.016;23.098;2024-02-23T14:00:51;2.40;;;2.20;;
7613;SDS011;3848;42.016;23.098;2024-02-23T14:03:19;3.23;;;2.70;;
7613;SDS011;3848;42.016;23.098;2024-02-23T14:05:48;2.47;;;2.20;;
7613;SDS011;3848;42.016;23.098;2024-02-23T14:08:15;2.20;;;2.00;;
7613;SDS011;3848;42.016;23.098;2024-02-23T14:10:42;3.30;;;2.43;;
7613;SDS011;3848;42.016;23.098;2024-02-23T14:13:09;5.63;;;2.73;;
7613;SDS011;3848;42.016;23.098;2024-02-23T14:15:36;4.63;;;2.67;;
7613;SDS011;3848;42.016;23.098;2024-02-23T14:18:04;3.57;;;3.00;;
7613;SDS011;3848;42.016;23.098;2024-02-23T14:20:33;4.13;;;3.03;;
7613;SDS011;3848;42.016;23.098;2024-02-23T14:36:14;3.37;;;2.63;;
7613;SDS011;3848;42.016;23.098;2024-02-23T14:38:42;3.33;;;3.00;;
7613;SDS011;3848;42.016;23.098;2024-02-23T14:41:09;3.23;;;2.93;;
7613;SDS011;3848;42.016;23.098;2024-02-23T14:43:36;2.87;;;2.67;;
7613;SDS011;3848;42.016;23.098;2024-02-23T14:46:04;2.10;;;1.93;;
7613;SDS011;3848;42.016;23.098;2024-02-23T14:48:31;4.27;;;2.83;;
7613;SDS011;3848;42.016;23.098;2024-02-23T14:50:58;12.37;;;4.00;;
7613;SDS011;3848;42.016;23.098;2024-02-23T14:53:29;2.93;;;2.73;;
7613;SDS011;3848;42.016;23.098;2024-02-23T14:55:57;4.97;;;3.20;;
7613;SDS011;3848;42.016;23.098;2024-02-23T14:58:23;8.10;;;3.00;;
7613;SDS011;3848;42.016;23.098;2024-02-23T15:00:50;3.60;;;3.07;;
7613;SDS011;3848;42.016;23.098;2024-02-23T15:03:17;2.93;;;2.50;;
7613;SDS011;3848;42.016;23.098;2024-02-23T15:05:44;2.80;;;2.60;;
7613;SDS011;3848;42.016;23.098;2024-02-23T15:08:11;3.50;;;3.20;;
7613;SDS011;3848;42.016;23.098;2024-02-23T15:10:40;5.80;;;3.50;;
7613;SDS011;3848;42.016;23.098;2024-02-23T15:13:08;3.97;;;3.33;;